Terminal Aerodrome Forecast
Issued by NWS Quad Cities IA IL

Home | Current Version | Previous Version | Text Only | Print | Product List | Glossary On
Versions: 1 2 3 4 5 6 7 8 9 10 11 12 13 14 15 16 17
000
FTUS43 KDVN 261700
TAFDBQ
TAF
KDBQ 261720Z 2618/2718 32014KT P6SM SCT035
     FM262000 33015G20KT P6SM BKN035
     FM262300 33011KT P6SM BKN035
     FM270500 35008KT P6SM BKN035
     FM271000 01007KT P6SM SCT035=

USA.gov is the U.S. government's official web portal to all federal, state and local government web resources and services.